createdAt,value
2017-08-30T00:01:30.390Z,11.63
2017-08-30T00:03:57.901Z,13.40
2017-08-30T00:06:25.377Z,13.23
2017-08-30T00:08:52.875Z,14.67
2017-08-30T00:11:20.366Z,12.77
2017-08-30T00:13:47.867Z,12.73
2017-08-30T00:16:16.121Z,12.20
2017-08-30T00:18:43.635Z,12.87
2017-08-30T00:21:11.143Z,13.50
2017-08-30T00:23:38.648Z,12.77
2017-08-30T00:26:18.064Z,12.47
2017-08-30T00:28:45.563Z,15.30
2017-08-30T00:31:13.550Z,14.23
2017-08-30T00:33:41.781Z,12.33
2017-08-30T00:36:09.269Z,12.07
2017-08-30T00:38:36.761Z,13.23
2017-08-30T00:41:04.269Z,13.17
2017-08-30T00:43:31.758Z,13.03
2017-08-30T00:45:59.260Z,13.23
2017-08-30T00:48:26.762Z,13.03
2017-08-30T00:50:54.322Z,12.87
2017-08-30T00:53:21.821Z,12.50
2017-08-30T00:55:49.325Z,12.50
2017-08-30T00:58:16.829Z,13.67
2017-08-30T01:00:44.339Z,12.80
2017-08-30T01:03:11.838Z,12.47
2017-08-30T01:05:40.301Z,13.40
2017-08-30T01:08:07.782Z,12.57
2017-08-30T01:10:35.321Z,13.48
2017-08-30T01:13:02.822Z,11.97
2017-08-30T01:15:30.315Z,12.90
2017-08-30T01:17:57.828Z,13.10
2017-08-30T01:20:26.091Z,13.70
2017-08-30T01:22:53.595Z,12.80
2017-08-30T01:25:21.088Z,12.83
2017-08-30T01:27:48.585Z,15.37
2017-08-30T01:30:16.074Z,13.57
2017-08-30T01:32:43.577Z,14.47
2017-08-30T01:35:11.110Z,13.20
2017-08-30T01:37:38.622Z,13.23
2017-08-30T01:40:06.123Z,12.80
2017-08-30T01:42:33.631Z,12.50
2017-08-30T01:45:01.905Z,15.00
2017-08-30T01:47:29.413Z,12.73
2017-08-30T01:49:56.909Z,12.40
2017-08-30T01:52:24.409Z,13.20
2017-08-30T01:54:51.904Z,12.10
2017-08-30T01:57:19.414Z,12.60
2017-08-30T01:59:46.903Z,13.80
2017-08-30T02:02:14.421Z,12.90
2017-08-30T02:04:42.004Z,13.30
2017-08-30T02:07:09.528Z,12.90
2017-08-30T02:09:37.037Z,12.60
2017-08-30T02:12:04.555Z,13.47
2017-08-30T02:14:32.798Z,15.27
2017-08-30T02:17:00.321Z,15.23
2017-08-30T02:19:27.805Z,13.00
2017-08-30T02:21:55.301Z,13.20
2017-08-30T02:24:22.803Z,12.20
2017-08-30T02:26:50.297Z,12.30
2017-08-30T02:29:17.811Z,13.27
2017-08-30T02:31:45.312Z,16.40
2017-08-30T02:34:12.813Z,14.30
2017-08-30T02:36:40.326Z,12.87
2017-08-30T02:39:07.842Z,12.90
2017-08-30T02:41:35.337Z,14.47
2017-08-30T02:44:02.828Z,13.00
2017-08-30T02:46:30.334Z,12.53
2017-08-30T02:48:57.839Z,13.33
2017-08-30T02:51:25.343Z,14.30
2017-08-30T02:53:52.872Z,12.60
2017-08-30T02:56:20.376Z,14.30
2017-08-30T02:58:47.890Z,14.07
2017-08-30T03:01:15.415Z,13.77
2017-08-30T03:03:43.923Z,13.90
2017-08-30T03:06:11.435Z,13.47
2017-08-30T03:08:38.935Z,14.00
2017-08-30T03:11:06.422Z,14.10
2017-08-30T03:13:33.933Z,13.30
2017-08-30T03:16:01.414Z,13.70
2017-08-30T03:18:29.680Z,13.80
2017-08-30T03:20:57.174Z,17.50
2017-08-30T03:23:24.686Z,19.33
2017-08-30T03:25:52.221Z,16.00
2017-08-30T03:28:19.722Z,14.50
2017-08-30T03:30:47.228Z,13.97
2017-08-30T03:33:14.732Z,14.90
2017-08-30T03:35:43.004Z,14.02
2017-08-30T03:38:10.493Z,14.20
2017-08-30T03:40:38.006Z,16.70
2017-08-30T03:43:05.492Z,15.43
2017-08-30T03:45:32.988Z,15.17
2017-08-30T03:48:00.482Z,15.87
2017-08-30T03:50:27.989Z,17.73
2017-08-30T03:52:55.495Z,15.50
2017-08-30T03:55:23.024Z,15.40
2017-08-30T03:57:50.507Z,16.83
2017-08-30T04:00:18.027Z,16.90
2017-08-30T04:02:45.514Z,15.30
2017-08-30T04:05:13.038Z,16.03
2017-08-30T04:07:40.544Z,20.13
2017-08-30T04:10:08.065Z,15.03
2017-08-30T04:12:42.128Z,15.37
2017-08-30T04:15:10.397Z,16.30
2017-08-30T04:17:37.908Z,16.13
2017-08-30T04:20:06.180Z,15.70
2017-08-30T04:22:33.664Z,16.83
2017-08-30T04:25:01.201Z,13.60
2017-08-30T04:27:28.700Z,14.70
2017-08-30T04:29:56.210Z,15.10
2017-08-30T04:32:23.722Z,15.50
2017-08-30T04:34:51.220Z,14.60
2017-08-30T04:37:18.720Z,15.83
2017-08-30T04:39:46.202Z,15.70
2017-08-30T04:42:13.716Z,18.25
2017-08-30T04:44:41.203Z,17.73
2017-08-30T04:47:08.704Z,16.17
2017-08-30T04:49:36.222Z,15.37
2017-08-30T04:52:03.737Z,15.10
2017-08-30T04:54:31.255Z,16.07
2017-08-30T04:56:58.763Z,16.13
2017-08-30T04:59:26.261Z,18.10
2017-08-30T05:01:53.764Z,15.30
2017-08-30T05:04:21.258Z,14.93
2017-08-30T05:06:48.775Z,18.03
2017-08-30T05:09:16.272Z,25.57
2017-08-30T05:11:43.785Z,20.52
2017-08-30T05:14:11.280Z,21.87
2017-08-30T05:16:38.816Z,26.85
2017-08-30T05:19:06.316Z,15.40
2017-08-30T05:21:33.831Z,14.50
2017-08-30T05:24:01.324Z,17.50
2017-08-30T05:26:28.868Z,20.35
2017-08-30T05:28:56.392Z,22.10
2017-08-30T05:31:24.666Z,20.27
2017-08-30T05:33:52.184Z,18.10
2017-08-30T05:36:19.685Z,17.83
2017-08-30T05:38:47.192Z,20.03
2017-08-30T05:41:14.682Z,25.50
2017-08-30T05:43:42.957Z,20.03
2017-08-30T05:46:10.448Z,24.30
2017-08-30T05:48:37.968Z,19.27
2017-08-30T05:51:05.453Z,19.00
2017-08-30T05:53:32.964Z,27.73
2017-08-30T05:56:00.471Z,17.20
2017-08-30T05:58:27.975Z,18.77
2017-08-30T06:00:55.454Z,20.90
2017-08-30T06:03:23.003Z,21.00
2017-08-30T06:05:50.503Z,17.40
2017-08-30T06:08:18.008Z,16.60
2017-08-30T06:10:46.523Z,16.53
2017-08-30T06:13:14.005Z,19.43
2017-08-30T06:15:41.573Z,16.40
2017-08-30T06:18:09.081Z,15.07
2017-08-30T06:20:37.415Z,23.87
2017-08-30T06:23:04.914Z,17.67
2017-08-30T06:25:32.413Z,15.70
2017-08-30T06:27:59.917Z,19.53
2017-08-30T06:30:27.438Z,17.30
2017-08-30T06:32:54.938Z,27.70
2017-08-30T06:35:23.472Z,18.23
2017-08-30T06:37:50.976Z,17.30
2017-08-30T06:40:18.468Z,18.03
2017-08-30T06:42:45.974Z,24.20
2017-08-30T06:45:13.468Z,28.25
2017-08-30T06:47:40.973Z,19.27
2017-08-30T06:50:08.475Z,25.07
2017-08-30T06:52:35.975Z,23.80
2017-08-30T06:55:04.231Z,18.83
2017-08-30T06:57:31.738Z,18.13
2017-08-30T06:59:59.227Z,18.00
2017-08-30T07:02:26.735Z,13.83
2017-08-30T07:04:54.231Z,12.57
2017-08-30T07:07:21.737Z,12.07
2017-08-30T07:09:49.233Z,12.97
2017-08-30T07:12:16.779Z,20.83
2017-08-30T07:14:44.274Z,18.17
2017-08-30T07:17:12.725Z,23.35
2017-08-30T07:19:40.233Z,14.40
2017-08-30T07:22:07.731Z,14.43
2017-08-30T07:24:35.252Z,14.27
2017-08-30T07:27:02.751Z,15.10
2017-08-30T07:29:30.268Z,14.65
2017-08-30T07:31:57.755Z,17.00
2017-08-30T07:34:25.256Z,20.33
2017-08-30T07:36:52.758Z,16.80
2017-08-30T07:39:20.274Z,24.70
2017-08-30T07:41:47.774Z,20.23
2017-08-30T07:44:16.668Z,19.27
2017-08-30T07:46:44.920Z,20.23
2017-08-30T07:49:12.435Z,19.40
2017-08-30T07:51:40.705Z,15.90
2017-08-30T07:54:08.222Z,15.33
2017-08-30T07:56:35.723Z,18.17
2017-08-30T07:59:03.236Z,19.47
2017-08-30T08:01:30.765Z,18.03
2017-08-30T08:03:58.256Z,14.33
2017-08-30T08:06:26.537Z,15.40
2017-08-30T08:08:54.791Z,22.80
2017-08-30T08:11:22.343Z,20.00
2017-08-30T08:13:57.587Z,15.43
2017-08-30T08:16:25.100Z,24.97
2017-08-30T08:18:52.610Z,12.23
2017-08-30T08:21:20.114Z,14.10
2017-08-30T08:23:47.630Z,16.73
2017-08-30T08:26:15.143Z,19.20
2017-08-30T08:28:42.634Z,15.40
2017-08-30T08:31:10.140Z,15.43
2017-08-30T08:33:37.640Z,17.57
2017-08-30T08:36:05.139Z,15.30
2017-08-30T08:38:33.453Z,12.63
2017-08-30T08:41:04.512Z,16.23
2017-08-30T08:43:32.001Z,10.10
2017-08-30T08:45:59.508Z,13.45
2017-08-30T08:48:27.004Z,15.30
2017-08-30T08:50:54.494Z,13.30
2017-08-30T08:53:22.764Z,10.63
2017-08-30T08:55:51.028Z,20.07
2017-08-30T08:58:18.543Z,15.30
2017-08-30T09:00:46.035Z,15.40
2017-08-30T09:03:13.539Z,14.87
2017-08-30T09:05:41.034Z,11.63
2017-08-30T09:08:08.567Z,22.17
2017-08-30T09:10:36.080Z,13.17
2017-08-30T09:13:03.603Z,16.13
2017-08-30T09:15:31.097Z,17.67
2017-08-30T09:17:58.624Z,15.93
2017-08-30T09:20:26.114Z,14.73
2017-08-30T09:22:53.610Z,13.17
2017-08-30T09:25:21.140Z,16.97
2017-08-30T09:27:48.659Z,15.47
2017-08-30T09:30:16.162Z,11.48
2017-08-30T09:32:44.410Z,12.10
2017-08-30T09:35:19.539Z,13.60
2017-08-30T09:37:47.026Z,11.27
2017-08-30T09:40:15.293Z,12.77
2017-08-30T09:42:42.800Z,14.93
2017-08-30T09:45:10.313Z,13.17
2017-08-30T09:47:37.801Z,13.13
2017-08-30T09:50:05.310Z,11.60
2017-08-30T09:52:32.798Z,12.97
2017-08-30T09:55:01.067Z,12.73
2017-08-30T09:57:28.556Z,12.20
2017-08-30T09:59:56.057Z,15.43
2017-08-30T10:02:23.576Z,14.13
2017-08-30T10:04:51.054Z,13.90
2017-08-30T10:07:18.551Z,15.80
2017-08-30T10:09:46.035Z,10.93
2017-08-30T10:12:13.540Z,13.67
2017-08-30T10:14:41.035Z,15.13
2017-08-30T10:17:08.532Z,16.37
2017-08-30T10:19:36.070Z,17.13
2017-08-30T10:22:03.580Z,11.73
2017-08-30T10:24:32.606Z,11.90
2017-08-30T10:27:00.115Z,16.03
2017-08-30T10:29:27.603Z,14.83
2017-08-30T10:31:55.124Z,11.37
2017-08-30T10:34:22.631Z,12.83
2017-08-30T10:36:50.123Z,12.10
2017-08-30T10:39:17.632Z,15.57
2017-08-30T10:41:45.120Z,14.57
2017-08-30T10:44:13.397Z,9.03
2017-08-30T10:46:42.577Z,11.10
2017-08-30T10:49:10.087Z,13.70
2017-08-30T10:51:38.464Z,8.63
2017-08-30T10:54:06.249Z,11.73
2017-08-30T10:56:33.743Z,9.13
2017-08-30T10:59:01.241Z,9.23
2017-08-30T11:01:28.723Z,11.40
2017-08-30T11:03:56.223Z,10.43
2017-08-30T11:06:23.718Z,12.03
2017-08-30T11:08:51.210Z,8.13
2017-08-30T11:11:18.700Z,13.30
2017-08-30T11:13:46.219Z,7.77
2017-08-30T11:16:13.717Z,15.17
2017-08-30T11:18:41.201Z,11.57
2017-08-30T11:21:08.691Z,13.73
2017-08-30T11:23:36.183Z,10.03
2017-08-30T11:26:03.680Z,8.70
2017-08-30T11:28:31.196Z,12.98
2017-08-30T11:30:58.712Z,13.87
2017-08-30T11:33:26.210Z,12.87
2017-08-30T11:35:53.711Z,12.87
2017-08-30T11:38:21.217Z,11.33
2017-08-30T11:40:48.746Z,9.53
2017-08-30T11:43:16.245Z,13.10
2017-08-30T11:45:43.740Z,9.17
2017-08-30T11:48:11.238Z,7.80
2017-08-30T11:50:38.739Z,10.83
2017-08-30T11:53:07.001Z,8.40
2017-08-30T11:55:34.505Z,6.97
2017-08-30T11:58:02.015Z,14.03
2017-08-30T12:00:29.520Z,8.03
2017-08-30T12:02:57.044Z,8.33
2017-08-30T12:05:24.534Z,6.47
2017-08-30T12:07:52.039Z,10.67
2017-08-30T12:10:19.535Z,8.00
2017-08-30T12:12:47.042Z,7.95
2017-08-30T12:15:14.543Z,7.97
2017-08-30T12:17:42.798Z,9.17
2017-08-30T12:20:10.850Z,5.97
2017-08-30T12:22:38.339Z,10.53
2017-08-30T12:25:06.607Z,7.40
2017-08-30T12:27:34.087Z,14.60
2017-08-30T12:30:01.599Z,7.20
2017-08-30T12:32:29.087Z,9.38
2017-08-30T12:34:57.375Z,8.52
2017-08-30T12:37:30.582Z,13.07
2017-08-30T12:39:58.086Z,10.07
2017-08-30T12:42:25.567Z,7.50
2017-08-30T12:44:53.667Z,7.63
2017-08-30T12:47:21.160Z,10.60
2017-08-30T12:49:48.678Z,7.43
2017-08-30T12:52:16.181Z,19.77
2017-08-30T12:54:43.684Z,13.73
2017-08-30T12:57:11.944Z,23.52
2017-08-30T12:59:39.479Z,10.83
2017-08-30T13:02:06.986Z,8.80
2017-08-30T13:04:34.482Z,14.77
2017-08-30T13:07:01.969Z,8.00
2017-08-30T13:09:29.527Z,14.30
2017-08-30T13:11:57.028Z,10.80
2017-08-30T13:14:24.538Z,17.83
2017-08-30T13:16:52.032Z,20.80
2017-08-30T13:19:20.321Z,12.40
2017-08-30T13:21:47.810Z,8.87
2017-08-30T13:24:15.315Z,15.93
2017-08-30T13:26:42.820Z,8.97
2017-08-30T13:29:10.354Z,13.60
2017-08-30T13:31:37.859Z,15.97
2017-08-30T13:34:05.362Z,18.50
2017-08-30T13:36:32.871Z,15.93
2017-08-30T13:39:00.377Z,10.33
2017-08-30T13:41:28.659Z,16.25
2017-08-30T13:43:56.167Z,9.90
2017-08-30T13:46:23.696Z,9.93
2017-08-30T13:48:51.187Z,8.40
2017-08-30T13:51:18.712Z,6.32
2017-08-30T13:53:46.223Z,9.97
2017-08-30T13:56:13.747Z,11.83
2017-08-30T13:58:41.246Z,11.13
2017-08-30T14:01:08.745Z,9.17
2017-08-30T14:03:36.240Z,6.35
2017-08-30T14:06:03.743Z,7.77
2017-08-30T14:08:31.239Z,14.10
2017-08-30T14:10:58.757Z,8.93
2017-08-30T14:13:27.023Z,14.87
2017-08-30T14:15:54.554Z,8.93
2017-08-30T14:18:22.048Z,5.93
2017-08-30T14:20:50.315Z,8.40
2017-08-30T14:23:17.807Z,8.70
2017-08-30T14:25:45.302Z,12.13
2017-08-30T14:28:12.794Z,8.67
2017-08-30T14:30:40.299Z,11.80
2017-08-30T14:33:07.807Z,6.13
2017-08-30T14:35:36.060Z,7.03
2017-08-30T14:38:03.593Z,9.47
2017-08-30T14:40:31.077Z,10.83
2017-08-30T14:42:58.597Z,11.20
2017-08-30T14:45:26.082Z,6.70
2017-08-30T14:47:53.598Z,8.43
2017-08-30T14:50:21.089Z,9.77
2017-08-30T14:52:48.600Z,7.50
2017-08-30T14:55:16.847Z,7.90
2017-08-30T14:57:44.368Z,9.97
2017-08-30T15:00:11.856Z,10.37
2017-08-30T15:02:39.379Z,12.10
2017-08-30T15:05:06.894Z,11.53
2017-08-30T15:07:34.378Z,9.20
2017-08-30T15:10:01.893Z,11.68
2017-08-30T15:12:29.388Z,10.13
2017-08-30T15:14:57.030Z,9.13
2017-08-30T15:17:24.525Z,8.93
2017-08-30T15:19:52.013Z,14.67
2017-08-30T15:22:19.509Z,10.37
2017-08-30T15:24:47.780Z,7.47
2017-08-30T15:27:15.260Z,6.53
2017-08-30T15:29:42.760Z,5.70
2017-08-30T15:32:10.244Z,11.00
2017-08-30T15:34:37.725Z,13.33
2017-08-30T15:37:05.219Z,11.73
2017-08-30T15:39:33.748Z,8.47
2017-08-30T15:42:01.235Z,8.60
2017-08-30T15:44:28.736Z,7.30
2017-08-30T15:46:56.224Z,8.40
2017-08-30T15:49:23.739Z,15.80
2017-08-30T15:51:51.219Z,8.40
2017-08-30T15:54:18.763Z,10.20
2017-08-30T15:56:46.254Z,10.50
2017-08-30T15:59:13.763Z,13.97
2017-08-30T16:01:41.238Z,9.27
2017-08-30T16:04:08.729Z,9.63
2017-08-30T16:06:36.207Z,8.77
2017-08-30T16:09:03.720Z,9.10
2017-08-30T16:11:31.213Z,8.90
2017-08-30T16:13:58.715Z,7.87
2017-08-30T16:16:26.219Z,10.00
2017-08-30T16:18:53.711Z,9.77
2017-08-30T16:21:21.198Z,9.43
2017-08-30T16:23:48.702Z,7.40
2017-08-30T16:26:16.963Z,7.93
2017-08-30T16:28:44.452Z,8.03
2017-08-30T16:31:11.957Z,7.80
2017-08-30T16:33:39.444Z,10.80
2017-08-30T16:36:06.988Z,5.60
2017-08-30T16:38:34.475Z,10.13
2017-08-30T16:41:01.963Z,10.93
2017-08-30T16:43:29.458Z,6.70
2017-08-30T16:45:56.954Z,6.93
2017-08-30T16:48:24.445Z,7.30
2017-08-30T16:50:51.946Z,6.70
2017-08-30T16:53:19.422Z,11.10
2017-08-30T16:55:46.923Z,7.63
2017-08-30T16:58:14.422Z,9.00
2017-08-30T17:00:42.854Z,6.60
2017-08-30T17:03:10.354Z,17.23
2017-08-30T17:05:37.866Z,8.37
2017-08-30T17:08:05.347Z,7.20
2017-08-30T17:10:32.851Z,6.20
2017-08-30T17:13:00.352Z,9.75
2017-08-30T17:15:27.868Z,6.60
2017-08-30T17:17:55.359Z,7.80
2017-08-30T17:20:22.877Z,9.37
2017-08-30T17:22:50.364Z,6.77
2017-08-30T17:25:17.872Z,9.63
2017-08-30T17:27:45.395Z,8.20
2017-08-30T17:30:12.889Z,6.93
2017-08-30T17:32:41.554Z,9.97
2017-08-30T17:35:09.706Z,8.02
2017-08-30T17:37:38.068Z,11.93
2017-08-30T17:40:05.576Z,12.10
2017-08-30T17:42:33.086Z,6.20
2017-08-30T17:45:02.280Z,11.77
2017-08-30T17:47:29.791Z,7.30
2017-08-30T17:49:57.276Z,10.93
2017-08-30T17:52:24.777Z,8.53
2017-08-30T17:54:52.276Z,16.53
2017-08-30T17:57:19.788Z,11.60
2017-08-30T17:59:47.276Z,10.70
2017-08-30T18:02:14.765Z,11.20
2017-08-30T18:04:42.254Z,11.40
2017-08-30T18:07:09.767Z,10.07
2017-08-30T18:09:37.263Z,13.13
2017-08-30T18:12:04.783Z,8.83
2017-08-30T18:14:32.297Z,9.77
2017-08-30T18:16:59.788Z,11.07
2017-08-30T18:19:27.277Z,11.70
2017-08-30T18:21:56.675Z,7.60
2017-08-30T18:24:24.251Z,9.20
2017-08-30T18:26:51.747Z,11.50
2017-08-30T18:29:19.261Z,12.80
2017-08-30T18:31:47.512Z,10.13
2017-08-30T18:34:15.054Z,12.70
2017-08-30T18:36:42.537Z,11.03
2017-08-30T18:39:10.022Z,12.60
2017-08-30T18:41:37.535Z,10.13
2017-08-30T18:44:05.044Z,11.50
2017-08-30T18:46:32.570Z,8.17
2017-08-30T18:49:00.059Z,7.77
2017-08-30T18:51:27.570Z,9.47
2017-08-30T18:53:55.074Z,7.13
2017-08-30T18:56:22.572Z,14.60
2017-08-30T18:58:50.068Z,10.27
2017-08-30T19:01:17.547Z,11.67
2017-08-30T19:03:45.071Z,9.70
2017-08-30T19:06:13.231Z,11.07
2017-08-30T19:08:40.733Z,13.47
2017-08-30T19:11:09.008Z,13.13
2017-08-30T19:13:36.509Z,10.37
2017-08-30T19:16:10.581Z,8.70
2017-08-30T19:18:38.852Z,9.90
2017-08-30T19:21:06.336Z,8.60
2017-08-30T19:23:33.857Z,11.50
2017-08-30T19:26:01.373Z,9.17
2017-08-30T19:28:28.862Z,9.80
2017-08-30T19:30:56.355Z,11.07
2017-08-30T19:33:23.837Z,10.53
2017-08-30T19:35:51.719Z,14.83
2017-08-30T19:38:19.202Z,12.73
2017-08-30T19:40:46.722Z,9.57
2017-08-30T19:43:14.206Z,10.13
2017-08-30T19:45:41.716Z,10.90
2017-08-30T19:48:09.208Z,9.90
2017-08-30T19:50:36.767Z,13.13
2017-08-30T19:53:04.247Z,10.93
2017-08-30T19:55:31.755Z,10.60
2017-08-30T19:57:59.255Z,12.63
2017-08-30T20:00:26.754Z,11.37
2017-08-30T20:02:54.256Z,9.40
2017-08-30T20:05:21.761Z,12.90
2017-08-30T20:07:49.245Z,11.87
2017-08-30T20:10:16.736Z,12.13
2017-08-30T20:12:44.234Z,9.33
2017-08-30T20:15:11.716Z,10.83
2017-08-30T20:17:39.227Z,11.77
2017-08-30T20:20:06.717Z,9.77
2017-08-30T20:22:34.219Z,14.17
2017-08-30T20:25:01.708Z,9.83
2017-08-30T20:27:29.231Z,15.93
2017-08-30T20:29:56.716Z,16.43
2017-08-30T20:32:24.223Z,16.92
2017-08-30T20:34:51.706Z,8.23
2017-08-30T20:37:19.222Z,10.13
2017-08-30T20:39:46.709Z,10.47
2017-08-30T20:42:15.033Z,9.40
2017-08-30T20:44:42.522Z,9.60
2017-08-30T20:47:10.031Z,13.30
2017-08-30T20:49:37.518Z,12.97
2017-08-30T20:52:05.015Z,15.80
2017-08-30T20:54:32.501Z,8.65
2017-08-30T20:57:00.009Z,12.30
2017-08-30T20:59:28.259Z,10.80
2017-08-30T21:01:55.761Z,9.00
2017-08-30T21:04:23.255Z,9.70
2017-08-30T21:06:50.753Z,14.00
2017-08-30T21:09:18.235Z,11.53
2017-08-30T21:11:45.715Z,10.37
2017-08-30T21:14:13.210Z,11.10
2017-08-30T21:16:40.698Z,9.33
2017-08-30T21:19:08.195Z,12.80
2017-08-30T21:21:35.679Z,9.00
2017-08-30T21:24:03.178Z,16.60
2017-08-30T21:26:30.653Z,8.20
2017-08-30T21:28:58.154Z,14.83
2017-08-30T21:31:25.642Z,10.87
2017-08-30T21:33:53.150Z,6.80
2017-08-30T21:36:20.624Z,7.07
2017-08-30T21:38:48.114Z,7.72
2017-08-30T21:41:16.353Z,8.83
2017-08-30T21:43:43.851Z,8.90
2017-08-30T21:46:12.669Z,7.87
2017-08-30T21:48:40.192Z,10.10
2017-08-30T21:51:07.677Z,4.60
2017-08-30T21:53:35.203Z,3.90
2017-08-30T21:56:02.683Z,5.63
2017-08-30T21:58:30.174Z,4.50
2017-08-30T22:00:57.692Z,5.67
2017-08-30T22:03:25.214Z,5.33
2017-08-30T22:05:52.713Z,3.20
2017-08-30T22:08:20.207Z,3.43
2017-08-30T22:10:47.701Z,3.83
2017-08-30T22:13:15.183Z,2.80
2017-08-30T22:15:42.701Z,4.27
2017-08-30T22:18:10.177Z,3.23
2017-08-30T22:20:37.680Z,3.27
2017-08-30T22:23:05.163Z,3.17
2017-08-30T22:25:32.669Z,4.03
2017-08-30T22:28:00.164Z,4.73
2017-08-30T22:30:27.688Z,6.53
2017-08-30T22:32:55.173Z,4.43
2017-08-30T22:35:22.693Z,3.30
2017-08-30T22:37:50.186Z,5.07
2017-08-30T22:40:17.667Z,6.07
2017-08-30T22:42:45.159Z,3.83
2017-08-30T22:45:13.415Z,2.90
2017-08-30T22:47:40.910Z,6.60
2017-08-30T22:50:08.388Z,3.77
2017-08-30T22:52:35.942Z,3.63
2017-08-30T22:55:03.423Z,3.57
2017-08-30T22:57:30.919Z,4.87
2017-08-30T22:59:58.389Z,5.60
2017-08-30T23:02:32.934Z,3.97
2017-08-30T23:05:00.446Z,4.83
2017-08-30T23:07:27.934Z,5.50
2017-08-30T23:09:55.430Z,5.77
2017-08-30T23:12:22.921Z,4.73
2017-08-30T23:14:50.437Z,5.17
2017-08-30T23:17:17.946Z,5.93
2017-08-30T23:19:45.449Z,6.07
2017-08-30T23:22:12.964Z,8.47
2017-08-30T23:24:40.445Z,5.37
2017-08-30T23:27:07.933Z,4.80
2017-08-30T23:29:36.347Z,6.93
2017-08-30T23:32:03.875Z,6.17
2017-08-30T23:34:31.365Z,7.90
2017-08-30T23:36:58.853Z,7.87
2017-08-30T23:39:26.354Z,6.13
2017-08-30T23:41:53.836Z,9.00
2017-08-30T23:44:21.333Z,7.70
2017-08-30T23:46:48.820Z,7.30
2017-08-30T23:49:16.326Z,5.87
2017-08-30T23:51:44.928Z,6.20
2017-08-30T23:54:12.414Z,6.63
2017-08-30T23:56:39.904Z,7.00
2017-08-30T23:59:07.398Z,7.23
